Soldier, KY (41173)

2:09 AM EDT on September 01, 2015 (GMT -0400)
Mauk Ridge | | Change Station
CLOSE
Current Station
Personal Weather Station
Location: Olive Hill, KY
Elevation: 1070 ft
Nearby Weather Stations

Elev 1070 ft 38.19 °N, 83.11 °W | Updated 53 seconds ago

Clear
Clear
67.3 °F
Feels Like 67.3 °F
N
0.0
Wind Variable Wind from North
Gusts 0.0 mph

Today
High -- | Low -- °F
--% Chance of Precip.
Yesterday
High -- | Low -- °F
Precip. -- in
7:02 AM 8:03 PM
Waning Gibbous, 91% visible
Pressure 30.15 in
Visibility 5.0 miles
Clouds Clear
Dew Point 67 °F
Humidity 99%
Rainfall 0.00 in
Snow Depth Not available.
UV 0 out of 12
Pollen 9.40 out of 12
Air Quality Not available.
Flu Activity Not available.
METAR KIOB 010555Z AUTO 00000KT 5SM BR CLR 17/17 A3015 RMK AO2
Pressure 30.15 in
Visibility 5.0 miles
Clouds Clear
Dew Point 67 °F
Humidity 99%
Rainfall 0.00 in
Snow Depth Not available.
UV 0 out of 12
Pollen 9.40 out of 12
Air Quality Not available.
Flu Activity Not available.
METAR KIOB 010555Z AUTO 00000KT 5SM BR CLR 17/17 A3015 RMK AO2

10-Day Weather Forecast

×

Almanac

Astronomy

Sep. 01, 2015 Rise Set
Actual Time
Civil Twilight
Nautical Twilight
Astronomical Twilight
Moon
Length of Visible Light
Length of Day
Tomorrow will be .
, % of the Moon is Illuminated

Today's Extremes

State Highs State Lows

Community

WunderPhotos

Upload Photos

1,851,484 photos uploaded!

WunderBlogs® & News

Nearby

Air Quality

  Air Quality AQ Index Pollutant
Not available.

Snow Depth

Station Depth Elevation

Earthquake Activity

City Distance Mag. Time & Date
Minimum magnitude displayed is 2.5.

Coastal Water Temperatures

Place Temperature

Stations

Nearby Weather Stations

Station Location Temp. Windchill Dew Point Humidity Wind Precip. Elev Updated Type